sensor_id;sensor_type;location;lat;lon;timestamp;P1;durP1;ratioP1;P2;durP2;ratioP2
3831;SDS011;12460;42.662;23.288;2023-12-20T00:00:25;58.97;;;34.40;;
3831;SDS011;12460;42.662;23.288;2023-12-20T00:15:26;49.10;;;32.80;;
3831;SDS011;12460;42.662;23.288;2023-12-20T00:30:28;47.27;;;29.87;;
3831;SDS011;12460;42.662;23.288;2023-12-20T00:45:30;43.70;;;27.80;;
3831;SDS011;12460;42.662;23.288;2023-12-20T01:00:32;45.83;;;28.10;;
3831;SDS011;12460;42.662;23.288;2023-12-20T01:15:34;39.53;;;25.10;;
3831;SDS011;12460;42.662;23.288;2023-12-20T01:30:36;36.40;;;23.87;;
3831;SDS011;12460;42.662;23.288;2023-12-20T01:45:38;32.30;;;20.57;;
3831;SDS011;12460;42.662;23.288;2023-12-20T02:00:40;33.97;;;21.17;;
3831;SDS011;12460;42.662;23.288;2023-12-20T02:15:42;31.50;;;19.40;;
3831;SDS011;12460;42.662;23.288;2023-12-20T02:30:45;33.10;;;20.93;;
3831;SDS011;12460;42.662;23.288;2023-12-20T02:45:47;28.17;;;18.20;;
3831;SDS011;12460;42.662;23.288;2023-12-20T03:00:48;35.47;;;18.80;;
3831;SDS011;12460;42.662;23.288;2023-12-20T03:15:50;36.77;;;21.07;;
3831;SDS011;12460;42.662;23.288;2023-12-20T03:30:52;27.93;;;18.53;;
3831;SDS011;12460;42.662;23.288;2023-12-20T03:45:54;30.77;;;19.73;;
3831;SDS011;12460;42.662;23.288;2023-12-20T04:00:56;35.90;;;21.73;;
3831;SDS011;12460;42.662;23.288;2023-12-20T04:15:58;39.47;;;25.77;;
3831;SDS011;12460;42.662;23.288;2023-12-20T04:31:00;47.50;;;26.97;;
3831;SDS011;12460;42.662;23.288;2023-12-20T04:46:02;46.47;;;29.53;;
3831;SDS011;12460;42.662;23.288;2023-12-20T05:01:05;58.93;;;35.80;;
3831;SDS011;12460;42.662;23.288;2023-12-20T05:16:08;62.57;;;36.87;;
3831;SDS011;12460;42.662;23.288;2023-12-20T05:31:10;68.47;;;38.60;;
3831;SDS011;12460;42.662;23.288;2023-12-20T05:46:12;89.90;;;49.77;;
3831;SDS011;12460;42.662;23.288;2023-12-20T06:01:14;91.33;;;50.27;;
3831;SDS011;12460;42.662;23.288;2023-12-20T06:16:18;96.30;;;50.90;;
3831;SDS011;12460;42.662;23.288;2023-12-20T06:31:20;81.67;;;45.70;;
3831;SDS011;12460;42.662;23.288;2023-12-20T06:46:22;75.33;;;43.53;;
3831;SDS011;12460;42.662;23.288;2023-12-20T07:01:24;75.00;;;44.90;;
3831;SDS011;12460;42.662;23.288;2023-12-20T07:16:26;87.20;;;47.27;;
3831;SDS011;12460;42.662;23.288;2023-12-20T07:31:28;85.33;;;46.63;;
3831;SDS011;12460;42.662;23.288;2023-12-20T07:46:30;100.53;;;51.83;;
3831;SDS011;12460;42.662;23.288;2023-12-20T08:01:32;111.03;;;55.23;;
3831;SDS011;12460;42.662;23.288;2023-12-20T08:16:34;116.00;;;56.13;;
3831;SDS011;12460;42.662;23.288;2023-12-20T08:31:36;120.77;;;59.10;;
3831;SDS011;12460;42.662;23.288;2023-12-20T08:46:38;113.53;;;59.50;;
3831;SDS011;12460;42.662;23.288;2023-12-20T09:01:39;110.63;;;58.67;;
3831;SDS011;12460;42.662;23.288;2023-12-20T09:16:41;100.27;;;55.97;;
3831;SDS011;12460;42.662;23.288;2023-12-20T09:31:43;105.13;;;59.20;;
3831;SDS011;12460;42.662;23.288;2023-12-20T09:46:48;105.67;;;58.17;;
3831;SDS011;12460;42.662;23.288;2023-12-20T10:01:52;100.40;;;58.83;;
3831;SDS011;12460;42.662;23.288;2023-12-20T10:17:04;106.50;;;59.70;;
3831;SDS011;12460;42.662;23.288;2023-12-20T10:32:23;113.17;;;65.60;;
3831;SDS011;12460;42.662;23.288;2023-12-20T10:47:29;118.27;;;74.00;;
3831;SDS011;12460;42.662;23.288;2023-12-20T11:02:32;127.00;;;76.83;;
3831;SDS011;12460;42.662;23.288;2023-12-20T11:17:41;103.13;;;66.50;;
3831;SDS011;12460;42.662;23.288;2023-12-20T11:32:51;103.17;;;61.97;;
3831;SDS011;12460;42.662;23.288;2023-12-20T11:47:53;102.07;;;61.73;;
3831;SDS011;12460;42.662;23.288;2023-12-20T12:02:59;97.33;;;58.40;;
3831;SDS011;12460;42.662;23.288;2023-12-20T12:18:01;92.47;;;55.33;;
3831;SDS011;12460;42.662;23.288;2023-12-20T12:33:03;99.00;;;55.70;;
3831;SDS011;12460;42.662;23.288;2023-12-20T12:48:05;85.13;;;52.10;;
3831;SDS011;12460;42.662;23.288;2023-12-20T13:03:08;88.50;;;49.37;;
3831;SDS011;12460;42.662;23.288;2023-12-20T13:18:09;96.20;;;52.57;;
3831;SDS011;12460;42.662;23.288;2023-12-20T13:33:11;96.17;;;53.93;;
3831;SDS011;12460;42.662;23.288;2023-12-20T13:48:13;103.80;;;51.90;;
3831;SDS011;12460;42.662;23.288;2023-12-20T14:03:15;106.03;;;53.83;;
3831;SDS011;12460;42.662;23.288;2023-12-20T14:18:17;96.13;;;52.50;;
3831;SDS011;12460;42.662;23.288;2023-12-20T14:33:19;102.63;;;55.03;;
3831;SDS011;12460;42.662;23.288;2023-12-20T14:48:23;119.17;;;58.53;;
3831;SDS011;12460;42.662;23.288;2023-12-20T15:03:25;181.27;;;92.30;;
3831;SDS011;12460;42.662;23.288;2023-12-20T15:18:26;178.93;;;91.87;;
3831;SDS011;12460;42.662;23.288;2023-12-20T15:33:29;171.57;;;90.20;;
3831;SDS011;12460;42.662;23.288;2023-12-20T15:48:30;175.63;;;89.40;;
3831;SDS011;12460;42.662;23.288;2023-12-20T16:03:32;187.20;;;92.70;;
3831;SDS011;12460;42.662;23.288;2023-12-20T16:18:39;169.17;;;86.90;;
3831;SDS011;12460;42.662;23.288;2023-12-20T16:33:41;166.20;;;83.53;;
3831;SDS011;12460;42.662;23.288;2023-12-20T16:48:42;158.03;;;81.77;;
3831;SDS011;12460;42.662;23.288;2023-12-20T17:03:47;150.80;;;74.50;;
3831;SDS011;12460;42.662;23.288;2023-12-20T17:18:52;161.27;;;83.70;;
3831;SDS011;12460;42.662;23.288;2023-12-20T17:33:54;185.80;;;102.97;;
3831;SDS011;12460;42.662;23.288;2023-12-20T17:48:55;212.50;;;110.10;;
3831;SDS011;12460;42.662;23.288;2023-12-20T18:03:57;202.27;;;106.23;;
3831;SDS011;12460;42.662;23.288;2023-12-20T18:18:59;171.07;;;82.30;;
3831;SDS011;12460;42.662;23.288;2023-12-20T18:34:01;159.63;;;75.60;;
3831;SDS011;12460;42.662;23.288;2023-12-20T18:49:06;152.90;;;74.67;;
3831;SDS011;12460;42.662;23.288;2023-12-20T19:04:11;163.13;;;74.00;;
3831;SDS011;12460;42.662;23.288;2023-12-20T19:19:13;158.20;;;75.90;;
3831;SDS011;12460;42.662;23.288;2023-12-20T19:34:14;158.87;;;77.10;;
3831;SDS011;12460;42.662;23.288;2023-12-20T19:49:16;166.97;;;82.00;;
3831;SDS011;12460;42.662;23.288;2023-12-20T20:04:18;154.70;;;73.47;;
3831;SDS011;12460;42.662;23.288;2023-12-20T20:19:20;146.03;;;72.67;;
3831;SDS011;12460;42.662;23.288;2023-12-20T20:34:22;133.90;;;68.80;;
3831;SDS011;12460;42.662;23.288;2023-12-20T20:49:29;153.20;;;69.23;;
3831;SDS011;12460;42.662;23.288;2023-12-20T21:04:31;144.40;;;72.57;;
3831;SDS011;12460;42.662;23.288;2023-12-20T21:19:33;145.70;;;70.70;;
3831;SDS011;12460;42.662;23.288;2023-12-20T21:34:35;179.57;;;84.17;;
3831;SDS011;12460;42.662;23.288;2023-12-20T21:49:37;168.90;;;75.13;;
3831;SDS011;12460;42.662;23.288;2023-12-20T22:04:40;163.77;;;79.97;;
3831;SDS011;12460;42.662;23.288;2023-12-20T22:19:42;168.53;;;79.23;;
3831;SDS011;12460;42.662;23.288;2023-12-20T22:34:44;158.13;;;75.77;;
3831;SDS011;12460;42.662;23.288;2023-12-20T22:49:46;158.50;;;75.20;;
3831;SDS011;12460;42.662;23.288;2023-12-20T23:04:48;142.97;;;70.80;;
3831;SDS011;12460;42.662;23.288;2023-12-20T23:19:49;145.93;;;70.77;;
3831;SDS011;12460;42.662;23.288;2023-12-20T23:34:51;149.00;;;69.67;;
3831;SDS011;12460;42.662;23.288;2023-12-20T23:50:05;119.30;;;63.70;;
